Time;durP1;ratioP1;P1;durP2;ratioP2;P2;SDS_P1;SDS_P2;PMS_P1;PMS_P2;Temp;Humidity;BMP_temperature;BMP_pressure;BME280_temperature;BME280_humidity;BME280_pressure;Samples;Min_cycle;Max_cycle;Signal;HPM_P1;HPM_P2
2022/05/15 00:09:44;;;;;;;5.93;2.55;;;;;;;18.92;55.35;101891.44;25687845;23;20012;-61
2022/05/15 00:19:45;;;;;;;4.65;2.35;;;;;;;18.89;55.21;101882.75;25690126;23;20027;-61
2022/05/15 00:29:46;;;;;;;7.88;3.50;;;;;;;18.84;55.19;101875.00;25690742;23;20016;-61
2022/05/15 00:39:48;;;;;;;5.90;2.67;;;;;;;18.87;55.10;101880.16;25687757;23;20017;-61
2022/05/15 00:49:50;;;;;;;6.18;2.25;;;;;;;18.88;54.85;101881.88;25689170;23;20013;-61
2022/05/15 01:00:06;;;;;;;6.15;2.50;;;;;;;18.87;54.53;101890.94;25688755;23;20024;-61
2022/05/15 01:10:08;;;;;;;5.80;2.85;;;;;;;18.86;54.37;101882.97;25659708;23;20016;-61
2022/05/15 01:20:17;;;;;;;6.57;2.25;;;;;;;18.83;54.21;101868.75;25660711;23;20332;-61
2022/05/15 01:30:21;;;;;;;5.18;2.53;;;;;;;18.81;54.09;101872.53;25635564;23;20075;-60
2022/05/15 01:40:23;;;;;;;5.88;2.15;;;;;;;18.79;53.79;101872.66;25686965;23;20051;-61
2022/05/15 01:50:26;;;;;;;3.95;1.98;;;;;;;18.78;53.75;101870.94;25661771;23;20016;-61
2022/05/15 02:00:29;;;;;;;6.28;2.38;;;;;;;18.78;53.44;101880.88;25686376;23;20024;-61
2022/05/15 02:10:31;;;;;;;4.10;2.20;;;;;;;18.75;53.43;101879.25;25686081;23;20020;-61
2022/05/15 02:20:33;;;;;;;5.95;2.45;;;;;;;18.74;53.48;101882.06;25684507;23;20020;-60
2022/05/15 02:30:35;;;;;;;5.38;2.30;;;;;;;18.72;53.08;101878.63;25687009;23;20021;-61
2022/05/15 02:40:37;;;;;;;3.90;2.28;;;;;;;18.68;53.12;101870.78;25687366;23;20261;-61
2022/05/15 03:00:59;;;;;;;4.05;2.17;;;;;;;18.62;52.83;101876.66;25687626;23;20025;-61
2022/05/15 03:11:01;;;;;;;4.97;2.13;;;;;;;18.59;52.62;101876.91;25684210;23;20020;-61
2022/05/15 03:21:02;;;;;;;6.25;1.95;;;;;;;18.55;52.66;101889.75;25686246;23;20020;-61
2022/05/15 03:31:04;;;;;;;4.63;1.98;;;;;;;18.52;52.26;101875.63;25659364;23;20096;-61
2022/05/15 03:41:06;;;;;;;3.33;1.85;;;;;;;18.51;52.33;101895.47;25682564;23;20027;-61
2022/05/15 03:51:07;;;;;;;3.55;1.67;;;;;;;18.50;52.23;101888.34;25684494;23;20027;-61
2022/05/15 04:01:09;;;;;;;3.97;1.75;;;;;;;18.49;51.75;101890.22;25689180;23;20472;-61
2022/05/15 04:11:12;;;;;;;6.10;2.83;;;;;;;18.45;51.93;101885.16;25690702;23;20023;-61
2022/05/15 04:21:14;;;;;;;3.78;1.90;;;;;;;18.41;51.68;101896.16;25691757;23;20490;-61
2022/05/15 04:31:15;;;;;;;3.17;1.80;;;;;;;18.40;51.92;101888.22;25690129;23;20021;-61
2022/05/15 04:41:17;;;;;;;5.03;2.20;;;;;;;18.39;51.96;101891.88;25664856;23;20112;-61
2022/05/15 04:51:19;;;;;;;3.90;2.33;;;;;;;18.37;52.13;101875.81;25690053;23;20013;-61
2022/05/15 05:01:24;;;;;;;3.10;2.15;;;;;;;18.36;52.10;101874.09;25689626;23;20084;-61
2022/05/15 05:11:26;;;;;;;4.93;2.22;;;;;;;18.30;52.37;101879.06;25690341;23;20025;-61
2022/05/15 05:21:28;;;;;;;4.50;1.92;;;;;;;18.37;52.54;101889.28;25684193;23;20047;-61
2022/05/15 05:31:29;;;;;;;4.90;2.10;;;;;;;18.37;52.80;101888.44;25680625;23;20020;-61
2022/05/15 05:41:40;;;;;;;4.82;2.10;;;;;;;18.38;52.92;101890.16;25689011;23;20091;-60
2022/05/15 05:51:41;;;;;;;4.07;1.80;;;;;;;18.39;53.63;101892.72;25679061;23;20016;-60
2022/05/15 06:01:43;;;;;;;5.60;2.30;;;;;;;18.45;54.18;101901.31;25671334;23;20048;-61
2022/05/15 06:11:44;;;;;;;6.93;2.58;;;;;;;18.49;54.94;101905.50;25668646;23;20021;-62
2022/05/15 06:21:46;;;;;;;5.03;2.05;;;;;;;18.53;55.39;101907.00;25676149;23;20021;-61
2022/05/15 06:31:47;;;;;;;4.88;2.00;;;;;;;18.56;55.83;101912.19;25674502;23;20024;-61
2022/05/15 06:41:50;;;;;;;5.57;2.08;;;;;;;18.61;55.95;101909.13;25669926;23;20083;-61
2022/05/15 06:52:01;;;;;;;6.18;2.20;;;;;;;18.66;55.98;101912.31;25673995;23;20027;-61
2022/05/15 07:02:03;;;;;;;4.72;1.98;;;;;;;18.71;56.25;101915.53;25648025;23;20025;-61
2022/05/15 07:12:06;;;;;;;5.18;2.05;;;;;;;18.76;56.53;101926.81;25646649;23;20021;-61
2022/05/15 07:22:09;;;;;;;4.95;2.15;;;;;;;18.85;56.53;101914.47;25672730;23;20032;-61
2022/05/15 07:32:11;;;;;;;6.13;2.10;;;;;;;19.14;55.90;101911.41;25672099;23;20027;-61
2022/05/15 07:42:13;;;;;;;5.45;1.67;;;;;;;19.00;56.02;101874.69;25675465;23;20025;-60
2022/05/15 07:52:14;;;;;;;6.70;2.10;;;;;;;19.32;55.93;101886.63;25679967;23;20087;-61
2022/05/15 08:02:16;;;;;;;10.15;2.40;;;;;;;19.63;55.55;101884.19;25683345;23;20867;-60
2022/05/15 08:12:18;;;;;;;5.05;1.60;;;;;;;19.60;55.14;101897.94;25687620;23;20028;-60
2022/05/15 08:32:39;;;;;;;6.18;1.90;;;;;;;19.63;58.63;101876.06;25687435;23;20016;-60
2022/05/15 08:42:49;;;;;;;3.33;1.48;;;;;;;19.66;58.02;101870.41;25687648;23;20024;-60
2022/05/15 08:53:01;;;;;;;6.53;2.17;;;;;;;19.69;57.26;101870.16;25687535;23;20016;-61
2022/05/15 09:03:25;;;;;;;4.40;1.88;;;;;;;19.72;56.67;101872.63;25663347;23;20027;-60
2022/05/15 09:13:32;;;;;;;4.05;1.40;;;;;;;19.76;56.39;101871.38;25686431;23;20017;-60
2022/05/15 09:23:37;;;;;;;4.25;1.80;;;;;;;19.77;56.36;101873.09;25686388;23;20024;-60
2022/05/15 09:33:46;;;;;;;5.15;1.70;;;;;;;19.79;56.39;101862.19;25686954;23;20020;-61
2022/05/15 09:43:53;;;;;;;4.93;1.75;;;;;;;19.81;55.99;101857.50;25657979;23;20447;-60
2022/05/15 09:53:57;;;;;;;5.30;2.13;;;;;;;19.82;56.33;101856.53;25670015;23;20029;-60
2022/05/15 10:04:00;;;;;;;2.73;1.40;;;;;;;19.82;55.85;101841.16;25671909;23;20076;-59
2022/05/15 10:14:03;;;;;;;8.60;1.70;;;;;;;19.71;55.42;101806.06;25676084;23;20549;-60
2022/05/15 10:24:08;;;;;;;4.82;1.80;;;;;;;19.84;55.73;101822.97;25678250;23;20391;-60
2022/05/15 10:34:12;;;;;;;2.85;1.48;;;;;;;19.64;55.67;101777.84;25671650;23;20024;-60
2022/05/15 10:44:39;;;;;;;6.47;1.63;;;;;;;19.85;55.19;101803.06;25676841;23;20399;-60
2022/05/15 11:05:32;;;;;;;5.73;1.70;;;;;;;19.78;55.11;101772.16;25677971;23;20099;-61
2022/05/15 11:15:56;;;;;;;4.60;1.80;;;;;;;19.90;55.06;101774.84;25691126;23;20017;-61
2022/05/15 11:26:21;;;;;;;5.20;1.80;;;;;;;19.93;54.90;101769.22;25691570;23;20024;-61
2022/05/15 11:36:25;;;;;;;4.90;1.63;;;;;;;19.93;54.90;101761.94;25683727;23;20360;-60
2022/05/15 11:46:45;;;;;;;3.80;1.48;;;;;;;19.95;55.00;101742.91;25689910;23;20020;-61
2022/05/15 11:56:46;;;;;;;5.32;1.50;;;;;;;19.95;54.89;101724.00;25689432;23;20028;-61
2022/05/15 12:07:09;;;;;;;3.28;1.50;;;;;;;19.96;54.87;101720.31;25688303;23;20079;-61
2022/05/15 12:17:25;;;;;;;3.22;1.33;;;;;;;19.94;54.82;101711.47;25689914;23;20017;-61
2022/05/15 12:27:28;;;;;;;2.63;1.17;;;;;;;19.98;54.63;101702.94;25687564;23;20119;-60
2022/05/15 12:37:33;;;;;;;2.60;1.40;;;;;;;19.74;54.74;101642.88;25659757;23;20478;-60
2022/05/15 12:47:36;;;;;;;3.03;1.50;;;;;;;19.98;54.68;101675.09;25688170;23;20047;-60
2022/05/15 12:57:51;;;;;;;2.57;1.13;;;;;;;20.00;54.66;101673.09;25688138;23;20020;-61
2022/05/15 13:07:56;;;;;;;3.15;1.80;;;;;;;19.98;54.60;101665.09;25687366;23;20072;-61
2022/05/15 13:18:08;;;;;;;3.22;1.40;;;;;;;19.78;54.57;101625.41;25682888;23;20103;-60
2022/05/15 13:28:10;;;;;;;3.72;1.52;;;;;;;19.99;54.17;101638.97;25682417;23;20016;-60
2022/05/15 13:38:28;;;;;;;4.53;1.67;;;;;;;20.00;54.07;101633.41;25654728;23;20021;-60
2022/05/15 13:48:51;;;;;;;3.80;1.60;;;;;;;20.02;53.90;101632.41;25684237;23;20021;-60
2022/05/15 13:58:55;;;;;;;4.82;2.03;;;;;;;20.02;54.06;101606.25;25679899;23;20364;-60
2022/05/15 14:09:09;;;;;;;5.60;1.60;;;;;;;20.02;54.32;101595.44;25677375;23;20043;-60
2022/05/15 14:19:18;;;;;;;4.35;1.70;;;;;;;20.02;54.64;101590.03;25674229;23;20028;-61
2022/05/15 14:29:19;;;;;;;4.90;1.50;;;;;;;20.00;54.35;101575.81;25676183;23;20020;-60
2022/05/15 14:39:21;;;;;;;4.78;1.75;;;;;;;19.99;54.51;101568.69;25672398;23;20032;-61
2022/05/15 14:49:26;;;;;;;7.60;2.05;;;;;;;19.98;55.93;101567.81;25668490;23;20134;-61
2022/05/15 14:59:36;;;;;;;5.10;1.75;;;;;;;20.00;56.40;101552.31;25646862;23;20020;-60
2022/05/15 15:09:38;;;;;;;6.28;1.88;;;;;;;20.04;55.87;101561.03;25659634;23;20407;-60
2022/05/15 15:19:40;;;;;;;7.07;2.45;;;;;;;20.17;57.23;101551.84;25669760;23;20459;-60
2022/05/15 15:29:43;;;;;;;10.27;2.83;;;;;;;20.31;59.08;101532.53;25669451;23;20024;-60
2022/05/15 15:39:47;;;;;;;9.90;2.42;;;;;;;20.36;58.79;101518.59;25666601;23;20075;-60
2022/05/15 15:49:49;;;;;;;10.07;3.20;;;;;;;20.37;58.33;101504.09;25660581;23;20028;-59
2022/05/15 15:59:50;;;;;;;7.18;2.15;;;;;;;20.35;57.60;101497.97;25649349;23;20523;-59
2022/05/15 16:09:51;;;;;;;5.25;1.73;;;;;;;20.32;57.37;101487.44;25672734;23;20020;-60
2022/05/15 16:19:53;;;;;;;7.20;2.22;;;;;;;20.33;57.36;101484.59;25676731;23;20028;-61
2022/05/15 16:29:56;;;;;;;6.40;1.90;;;;;;;20.33;57.01;101476.50;25679669;23;20095;-59
2022/05/15 16:39:59;;;;;;;6.68;1.85;;;;;;;20.32;57.48;101477.44;25680587;23;20021;-59
2022/05/15 16:50:08;;;;;;;3.60;1.55;;;;;;;20.28;56.79;101470.63;25675008;23;20020;-59
2022/05/15 17:00:16;;;;;;;3.30;1.55;;;;;;;20.26;56.07;101478.88;25683510;23;20390;-59
2022/05/15 17:10:19;;;;;;;5.78;1.60;;;;;;;20.23;55.54;101468.34;25682019;23;20021;-59
2022/05/15 17:20:21;;;;;;;4.25;1.70;;;;;;;20.02;55.47;101408.97;25664406;23;20455;-59
2022/05/15 17:40:43;;;;;;;4.50;1.70;;;;;;;20.18;55.04;101438.16;25671406;23;20020;-60
2022/05/15 17:50:47;;;;;;;5.07;1.73;;;;;;;20.18;54.67;101431.91;25667312;23;20027;-60
2022/05/15 18:00:50;;;;;;;5.05;1.73;;;;;;;20.15;55.69;101424.94;25673156;23;20016;-60
2022/05/15 18:10:53;;;;;;;5.90;2.22;;;;;;;20.13;55.60;101426.91;25670642;23;20048;-60
2022/05/15 18:20:57;;;;;;;5.30;2.38;;;;;;;20.09;56.55;101414.66;25667423;23;20020;-59
2022/05/15 18:31:03;;;;;;;7.55;2.25;;;;;;;20.04;56.51;101409.69;25682628;23;20024;-59
2022/05/15 18:41:08;;;;;;;4.93;2.00;;;;;;;19.94;55.42;101403.41;25676658;23;20017;-59
2022/05/15 19:01:31;;;;;;;9.10;3.38;;;;;;;19.95;57.05;101426.72;25684950;23;20020;-59
2022/05/15 19:11:35;;;;;;;6.53;2.83;;;;;;;19.93;58.28;101417.91;25684327;23;20103;-59
2022/05/15 19:21:37;;;;;;;7.30;2.72;;;;;;;19.92;58.91;101440.50;25684945;23;20382;-59
2022/05/15 19:31:39;;;;;;;5.30;2.40;;;;;;;19.88;59.49;101431.78;25689053;23;20276;-60
2022/05/15 19:41:41;;;;;;;4.75;2.35;;;;;;;19.87;59.77;101457.09;25690212;23;20024;-59
2022/05/15 19:51:43;;;;;;;5.57;2.13;;;;;;;19.83;59.99;101458.34;25692168;23;20028;-59
2022/05/15 20:01:46;;;;;;;3.85;1.83;;;;;;;19.80;60.28;101462.16;25690987;23;20024;-59
2022/05/15 20:11:54;;;;;;;5.35;2.63;;;;;;;19.78;60.00;101468.72;25686571;23;20017;-59
2022/05/15 20:21:55;;;;;;;3.28;1.73;;;;;;;19.76;60.11;101466.13;25691517;23;20351;-59
2022/05/15 20:31:57;;;;;;;6.15;2.67;;;;;;;19.73;60.17;101465.56;25690508;23;20419;-59
2022/05/15 20:42:00;;;;;;;4.60;2.00;;;;;;;19.70;60.35;101461.28;25690014;23;20076;-59
2022/05/15 20:52:03;;;;;;;5.28;2.15;;;;;;;19.67;61.28;101466.94;25689742;23;20020;-59
2022/05/15 21:02:06;;;;;;;4.70;2.10;;;;;;;19.65;61.40;101466.22;25687811;23;20024;-59
2022/05/15 21:12:08;;;;;;;5.35;2.28;;;;;;;19.62;61.55;101464.63;25686357;23;20080;-59
2022/05/15 21:22:10;;;;;;;3.88;2.08;;;;;;;19.60;61.57;101466.63;25687534;23;20016;-59
2022/05/15 21:32:11;;;;;;;3.92;2.00;;;;;;;19.60;61.76;101471.19;25689000;23;20024;-59
2022/05/15 21:52:35;;;;;;;4.80;2.13;;;;;;;19.54;61.53;101453.66;25686072;23;20028;-59
2022/05/15 22:02:38;;;;;;;3.58;1.77;;;;;;;19.51;61.27;101446.69;25688066;23;20075;-59
2022/05/15 22:12:40;;;;;;;3.40;2.00;;;;;;;19.50;61.16;101461.19;25684152;23;20016;-59
2022/05/15 22:22:41;;;;;;;3.03;1.88;;;;;;;19.48;61.17;101457.75;25688010;23;20087;-59
2022/05/15 22:32:43;;;;;;;3.17;1.75;;;;;;;19.47;61.31;101445.25;25685185;23;20016;-59
2022/05/15 22:42:44;;;;;;;4.80;2.95;;;;;;;19.45;61.40;101438.25;25687039;23;20397;-60
2022/05/15 22:52:46;;;;;;;3.25;1.73;;;;;;;19.43;60.69;101430.28;25686474;23;20075;-60
2022/05/15 23:02:48;;;;;;;3.17;1.65;;;;;;;19.40;60.17;101428.72;25685921;23;20090;-59
2022/05/15 23:12:49;;;;;;;3.40;1.30;;;;;;;19.39;60.23;101420.75;25686327;23;20455;-60
2022/05/15 23:22:51;;;;;;;2.22;1.50;;;;;;;19.36;59.88;101404.81;25658690;23;20020;-60
2022/05/15 23:32:55;;;;;;;2.90;1.80;;;;;;;19.32;59.80;101384.47;25685930;23;20087;-62
2022/05/15 23:42:58;;;;;;;3.67;1.65;;;;;;;19.30;59.86;101371.13;25686019;23;20481;-59
2022/05/15 23:53:00;;;;;;;2.83;1.52;;;;;;;19.28;59.75;101365.00;25685068;23;20021;-60
